sensor_id;sensor_type;location;lat;lon;timestamp;pressure;altitude;pressure_sealevel;temperature
71081;BMP180;58740;50.672;18.690;2023-11-22T00:00:21;99237.00;;;1.68
71081;BMP180;58740;50.672;18.690;2023-11-22T00:03:14;99239.60;;;1.70
71081;BMP180;58740;50.672;18.690;2023-11-22T00:05:48;99247.20;;;1.70
71081;BMP180;58740;50.672;18.690;2023-11-22T00:08:22;99251.20;;;1.70
71081;BMP180;58740;50.672;18.690;2023-11-22T00:10:56;99252.40;;;1.68
71081;BMP180;58740;50.672;18.690;2023-11-22T00:13:29;99262.40;;;1.70
71081;BMP180;58740;50.672;18.690;2023-11-22T00:16:04;99256.60;;;1.70
71081;BMP180;58740;50.672;18.690;2023-11-22T00:18:41;99255.80;;;1.70
71081;BMP180;58740;50.672;18.690;2023-11-22T00:21:14;99259.40;;;1.76
71081;BMP180;58740;50.672;18.690;2023-11-22T00:23:48;99259.00;;;1.70
71081;BMP180;58740;50.672;18.690;2023-11-22T00:26:21;99252.20;;;1.70
71081;BMP180;58740;50.672;18.690;2023-11-22T00:28:55;99261.20;;;1.60
71081;BMP180;58740;50.672;18.690;2023-11-22T00:31:29;99268.20;;;1.52
71081;BMP180;58740;50.672;18.690;2023-11-22T00:34:03;99272.00;;;1.58
71081;BMP180;58740;50.672;18.690;2023-11-22T00:36:36;99277.40;;;1.50
71081;BMP180;58740;50.672;18.690;2023-11-22T00:39:10;99284.80;;;1.50
71081;BMP180;58740;50.672;18.690;2023-11-22T00:41:45;99289.20;;;1.50
71081;BMP180;58740;50.672;18.690;2023-11-22T00:44:19;99289.80;;;1.40
71081;BMP180;58740;50.672;18.690;2023-11-22T00:46:52;99293.60;;;1.40
71081;BMP180;58740;50.672;18.690;2023-11-22T00:49:26;99300.00;;;1.42
71081;BMP180;58740;50.672;18.690;2023-11-22T00:51:59;99297.20;;;1.50
71081;BMP180;58740;50.672;18.690;2023-11-22T00:54:35;99299.80;;;1.44
71081;BMP180;58740;50.672;18.690;2023-11-22T00:57:09;99303.00;;;1.42
71081;BMP180;58740;50.672;18.690;2023-11-22T00:59:42;99287.20;;;1.50
71081;BMP180;58740;50.672;18.690;2023-11-22T01:02:16;99294.80;;;1.40
71081;BMP180;58740;50.672;18.690;2023-11-22T01:04:50;99294.20;;;1.40
71081;BMP180;58740;50.672;18.690;2023-11-22T01:07:23;99300.20;;;1.30
71081;BMP180;58740;50.672;18.690;2023-11-22T01:09:57;99302.20;;;1.30
71081;BMP180;58740;50.672;18.690;2023-11-22T01:12:31;99302.00;;;1.30
71081;BMP180;58740;50.672;18.690;2023-11-22T01:15:06;99306.40;;;1.30
71081;BMP180;58740;50.672;18.690;2023-11-22T01:17:40;99298.00;;;1.30
71081;BMP180;58740;50.672;18.690;2023-11-22T01:20:14;99301.60;;;1.30
71081;BMP180;58740;50.672;18.690;2023-11-22T01:22:47;99296.00;;;1.30
71081;BMP180;58740;50.672;18.690;2023-11-22T01:25:21;99297.80;;;1.30
71081;BMP180;58740;50.672;18.690;2023-11-22T01:27:55;99299.20;;;1.20
71081;BMP180;58740;50.672;18.690;2023-11-22T01:30:28;99301.80;;;1.20
71081;BMP180;58740;50.672;18.690;2023-11-22T01:33:02;99306.00;;;1.22
71081;BMP180;58740;50.672;18.690;2023-11-22T01:35:36;99312.60;;;1.30
71081;BMP180;58740;50.672;18.690;2023-11-22T01:38:10;99308.40;;;1.40
71081;BMP180;58740;50.672;18.690;2023-11-22T01:40:48;99319.60;;;1.50
71081;BMP180;58740;50.672;18.690;2023-11-22T01:43:26;99321.20;;;1.60
71081;BMP180;58740;50.672;18.690;2023-11-22T01:46:00;99326.80;;;1.50
71081;BMP180;58740;50.672;18.690;2023-11-22T01:48:34;99321.60;;;1.50
71081;BMP180;58740;50.672;18.690;2023-11-22T01:51:08;99335.60;;;1.56
71081;BMP180;58740;50.672;18.690;2023-11-22T01:53:42;99337.60;;;1.50
71081;BMP180;58740;50.672;18.690;2023-11-22T01:56:16;99339.00;;;1.50
71081;BMP180;58740;50.672;18.690;2023-11-22T01:58:51;99348.00;;;1.46
71081;BMP180;58740;50.672;18.690;2023-11-22T02:01:27;99352.00;;;1.40
71081;BMP180;58740;50.672;18.690;2023-11-22T02:04:01;99356.40;;;1.30
71081;BMP180;58740;50.672;18.690;2023-11-22T02:06:34;99354.00;;;1.20
71081;BMP180;58740;50.672;18.690;2023-11-22T02:09:09;99357.00;;;1.20
71081;BMP180;58740;50.672;18.690;2023-11-22T02:11:46;99362.20;;;1.20
71081;BMP180;58740;50.672;18.690;2023-11-22T02:14:21;99362.60;;;1.20
71081;BMP180;58740;50.672;18.690;2023-11-22T02:16:55;99370.80;;;1.20
71081;BMP180;58740;50.672;18.690;2023-11-22T02:19:31;99370.40;;;1.20
71081;BMP180;58740;50.672;18.690;2023-11-22T02:22:05;99376.00;;;1.20
71081;BMP180;58740;50.672;18.690;2023-11-22T02:24:38;99380.80;;;1.20
71081;BMP180;58740;50.672;18.690;2023-11-22T02:27:12;99385.60;;;1.20
71081;BMP180;58740;50.672;18.690;2023-11-22T02:29:45;99380.00;;;1.10
71081;BMP180;58740;50.672;18.690;2023-11-22T02:32:19;99377.60;;;1.06
71081;BMP180;58740;50.672;18.690;2023-11-22T02:34:52;99384.00;;;1.00
71081;BMP180;58740;50.672;18.690;2023-11-22T02:37:26;99386.00;;;1.00
71081;BMP180;58740;50.672;18.690;2023-11-22T02:40:04;99390.80;;;1.00
71081;BMP180;58740;50.672;18.690;2023-11-22T02:42:38;99397.60;;;1.00
71081;BMP180;58740;50.672;18.690;2023-11-22T02:45:13;99398.20;;;1.06
71081;BMP180;58740;50.672;18.690;2023-11-22T02:47:47;99403.60;;;1.00
71081;BMP180;58740;50.672;18.690;2023-11-22T02:50:21;99406.80;;;1.02
71081;BMP180;58740;50.672;18.690;2023-11-22T02:52:55;99406.80;;;1.00
71081;BMP180;58740;50.672;18.690;2023-11-22T02:55:28;99408.40;;;0.90
71081;BMP180;58740;50.672;18.690;2023-11-22T02:58:02;99407.40;;;0.80
71081;BMP180;58740;50.672;18.690;2023-11-22T03:00:35;99406.00;;;0.80
71081;BMP180;58740;50.672;18.690;2023-11-22T03:03:09;99413.00;;;0.80
71081;BMP180;58740;50.672;18.690;2023-11-22T03:05:44;99419.40;;;0.80
71081;BMP180;58740;50.672;18.690;2023-11-22T03:08:18;99418.60;;;0.80
71081;BMP180;58740;50.672;18.690;2023-11-22T03:10:51;99420.00;;;0.80
71081;BMP180;58740;50.672;18.690;2023-11-22T03:13:25;99427.40;;;0.90
71081;BMP180;58740;50.672;18.690;2023-11-22T03:15:58;99427.80;;;0.90
71081;BMP180;58740;50.672;18.690;2023-11-22T03:18:32;99433.00;;;0.98
71081;BMP180;58740;50.672;18.690;2023-11-22T03:21:06;99437.00;;;0.90
71081;BMP180;58740;50.672;18.690;2023-11-22T03:23:39;99443.60;;;0.92
71081;BMP180;58740;50.672;18.690;2023-11-22T03:26:13;99442.60;;;0.90
71081;BMP180;58740;50.672;18.690;2023-11-22T03:28:47;99447.60;;;0.90
71081;BMP180;58740;50.672;18.690;2023-11-22T03:31:21;99455.80;;;0.80
71081;BMP180;58740;50.672;18.690;2023-11-22T03:33:56;99460.40;;;0.80
71081;BMP180;58740;50.672;18.690;2023-11-22T03:36:30;99465.40;;;0.80
71081;BMP180;58740;50.672;18.690;2023-11-22T03:39:04;99468.60;;;0.80
71081;BMP180;58740;50.672;18.690;2023-11-22T03:41:38;99466.00;;;0.80
71081;BMP180;58740;50.672;18.690;2023-11-22T03:44:12;99471.00;;;0.78
71081;BMP180;58740;50.672;18.690;2023-11-22T03:46:45;99472.80;;;0.78
71081;BMP180;58740;50.672;18.690;2023-11-22T03:49:19;99474.60;;;0.80
71081;BMP180;58740;50.672;18.690;2023-11-22T03:51:52;99487.40;;;0.78
71081;BMP180;58740;50.672;18.690;2023-11-22T03:54:26;99496.80;;;0.80
71081;BMP180;58740;50.672;18.690;2023-11-22T03:57:00;99500.00;;;0.80
71081;BMP180;58740;50.672;18.690;2023-11-22T03:59:35;99512.40;;;0.80
71081;BMP180;58740;50.672;18.690;2023-11-22T04:02:09;99518.40;;;0.80
71081;BMP180;58740;50.672;18.690;2023-11-22T04:04:42;99516.20;;;0.70
71081;BMP180;58740;50.672;18.690;2023-11-22T04:07:17;99524.80;;;0.70
71081;BMP180;58740;50.672;18.690;2023-11-22T04:09:51;99539.60;;;0.74
71081;BMP180;58740;50.672;18.690;2023-11-22T04:12:26;99549.00;;;0.80
71081;BMP180;58740;50.672;18.690;2023-11-22T04:14:59;99545.20;;;0.80
71081;BMP180;58740;50.672;18.690;2023-11-22T04:17:33;99545.40;;;0.86
71081;BMP180;58740;50.672;18.690;2023-11-22T04:20:12;99549.60;;;0.80
71081;BMP180;58740;50.672;18.690;2023-11-22T04:22:47;99558.20;;;0.90
71081;BMP180;58740;50.672;18.690;2023-11-22T04:25:21;99558.40;;;0.80
71081;BMP180;58740;50.672;18.690;2023-11-22T04:27:55;99570.60;;;0.82
71081;BMP180;58740;50.672;18.690;2023-11-22T04:30:29;99579.20;;;0.90
71081;BMP180;58740;50.672;18.690;2023-11-22T04:33:03;99577.80;;;0.90
71081;BMP180;58740;50.672;18.690;2023-11-22T04:35:36;99587.00;;;0.82
71081;BMP180;58740;50.672;18.690;2023-11-22T04:38:11;99584.80;;;0.70
71081;BMP180;58740;50.672;18.690;2023-11-22T04:40:45;99593.60;;;0.70
71081;BMP180;58740;50.672;18.690;2023-11-22T04:43:18;99591.60;;;0.78
71081;BMP180;58740;50.672;18.690;2023-11-22T04:45:52;99599.20;;;0.80
71081;BMP180;58740;50.672;18.690;2023-11-22T04:48:25;99594.80;;;0.80
71081;BMP180;58740;50.672;18.690;2023-11-22T04:50:59;99599.20;;;0.80
71081;BMP180;58740;50.672;18.690;2023-11-22T04:53:32;99609.60;;;0.80
71081;BMP180;58740;50.672;18.690;2023-11-22T04:56:07;99614.40;;;0.80
71081;BMP180;58740;50.672;18.690;2023-11-22T04:58:41;99605.40;;;0.80
71081;BMP180;58740;50.672;18.690;2023-11-22T05:01:14;99600.80;;;0.80
71081;BMP180;58740;50.672;18.690;2023-11-22T05:03:52;99595.40;;;0.70
71081;BMP180;58740;50.672;18.690;2023-11-22T05:06:25;99605.40;;;0.60
71081;BMP180;58740;50.672;18.690;2023-11-22T05:08:59;99614.40;;;0.66
71081;BMP180;58740;50.672;18.690;2023-11-22T05:11:33;99615.00;;;0.70
71081;BMP180;58740;50.672;18.690;2023-11-22T05:14:06;99619.20;;;0.70
71081;BMP180;58740;50.672;18.690;2023-11-22T05:16:40;99625.20;;;0.72
71081;BMP180;58740;50.672;18.690;2023-11-22T05:19:13;99635.80;;;0.70
71081;BMP180;58740;50.672;18.690;2023-11-22T05:21:47;99642.80;;;0.68
71081;BMP180;58740;50.672;18.690;2023-11-22T05:24:20;99639.20;;;0.70
71081;BMP180;58740;50.672;18.690;2023-11-22T05:26:54;99637.20;;;0.60
71081;BMP180;58740;50.672;18.690;2023-11-22T05:29:27;99639.60;;;0.60
71081;BMP180;58740;50.672;18.690;2023-11-22T05:32:11;99645.40;;;0.60
71081;BMP180;58740;50.672;18.690;2023-11-22T05:34:45;99651.80;;;0.60
71081;BMP180;58740;50.672;18.690;2023-11-22T05:37:18;99651.40;;;0.56
71081;BMP180;58740;50.672;18.690;2023-11-22T05:39:53;99651.80;;;0.60
71081;BMP180;58740;50.672;18.690;2023-11-22T05:42:27;99664.40;;;0.60
71081;BMP180;58740;50.672;18.690;2023-11-22T05:45:01;99674.80;;;0.60
71081;BMP180;58740;50.672;18.690;2023-11-22T05:47:36;99676.00;;;0.66
71081;BMP180;58740;50.672;18.690;2023-11-22T05:50:11;99670.00;;;0.70
71081;BMP180;58740;50.672;18.690;2023-11-22T05:52:44;99677.20;;;0.70
71081;BMP180;58740;50.672;18.690;2023-11-22T05:55:19;99688.80;;;0.80
71081;BMP180;58740;50.672;18.690;2023-11-22T05:57:53;99689.60;;;0.90
71081;BMP180;58740;50.672;18.690;2023-11-22T06:00:26;99695.40;;;0.72
71081;BMP180;58740;50.672;18.690;2023-11-22T06:03:00;99695.40;;;0.70
71081;BMP180;58740;50.672;18.690;2023-11-22T06:05:33;99697.80;;;0.64
71081;BMP180;58740;50.672;18.690;2023-11-22T06:08:07;99695.20;;;0.68
71081;BMP180;58740;50.672;18.690;2023-11-22T06:10:41;99695.80;;;0.70
71081;BMP180;58740;50.672;18.690;2023-11-22T06:13:15;99687.80;;;0.70
71081;BMP180;58740;50.672;18.690;2023-11-22T06:15:49;99695.00;;;0.60
71081;BMP180;58740;50.672;18.690;2023-11-22T06:18:23;99696.00;;;0.60
71081;BMP180;58740;50.672;18.690;2023-11-22T06:21:02;99702.20;;;0.60
71081;BMP180;58740;50.672;18.690;2023-11-22T06:23:35;99706.40;;;0.60
71081;BMP180;58740;50.672;18.690;2023-11-22T06:26:09;99706.00;;;0.66
71081;BMP180;58740;50.672;18.690;2023-11-22T06:28:43;99713.60;;;0.68
71081;BMP180;58740;50.672;18.690;2023-11-22T06:31:18;99717.60;;;0.70
71081;BMP180;58740;50.672;18.690;2023-11-22T06:33:52;99716.20;;;0.70
71081;BMP180;58740;50.672;18.690;2023-11-22T06:36:25;99715.80;;;0.70
71081;BMP180;58740;50.672;18.690;2023-11-22T06:39:00;99723.40;;;0.70
71081;BMP180;58740;50.672;18.690;2023-11-22T06:41:34;99725.40;;;0.70
71081;BMP180;58740;50.672;18.690;2023-11-22T06:44:08;99729.20;;;0.70
71081;BMP180;58740;50.672;18.690;2023-11-22T06:46:42;99727.40;;;0.70
71081;BMP180;58740;50.672;18.690;2023-11-22T06:49:16;99730.00;;;0.70
71081;BMP180;58740;50.672;18.690;2023-11-22T06:51:49;99737.40;;;0.70
71081;BMP180;58740;50.672;18.690;2023-11-22T06:54:24;99752.20;;;0.70
71081;BMP180;58740;50.672;18.690;2023-11-22T06:56:57;99760.80;;;0.70
71081;BMP180;58740;50.672;18.690;2023-11-22T06:59:31;99768.80;;;0.70
71081;BMP180;58740;50.672;18.690;2023-11-22T07:02:05;99773.20;;;0.60
71081;BMP180;58740;50.672;18.690;2023-11-22T07:04:39;99774.00;;;0.60
71081;BMP180;58740;50.672;18.690;2023-11-22T07:07:13;99777.80;;;0.60
71081;BMP180;58740;50.672;18.690;2023-11-22T07:09:47;99781.00;;;0.50
71081;BMP180;58740;50.672;18.690;2023-11-22T07:12:20;99786.60;;;0.50
71081;BMP180;58740;50.672;18.690;2023-11-22T07:14:54;99791.60;;;0.50
71081;BMP180;58740;50.672;18.690;2023-11-22T07:17:27;99791.20;;;0.50
71081;BMP180;58740;50.672;18.690;2023-11-22T07:20:02;99790.40;;;0.50
71081;BMP180;58740;50.672;18.690;2023-11-22T07:22:40;99787.00;;;0.50
71081;BMP180;58740;50.672;18.690;2023-11-22T07:25:15;99792.40;;;0.50
71081;BMP180;58740;50.672;18.690;2023-11-22T07:27:51;99784.80;;;0.50
71081;BMP180;58740;50.672;18.690;2023-11-22T07:30:25;99798.40;;;0.50
71081;BMP180;58740;50.672;18.690;2023-11-22T07:33:02;99810.20;;;0.50
71081;BMP180;58740;50.672;18.690;2023-11-22T07:35:38;99800.40;;;0.50
71081;BMP180;58740;50.672;18.690;2023-11-22T07:38:11;99803.60;;;0.50
71081;BMP180;58740;50.672;18.690;2023-11-22T07:40:45;99807.60;;;0.60
71081;BMP180;58740;50.672;18.690;2023-11-22T07:43:18;99808.40;;;0.60
71081;BMP180;58740;50.672;18.690;2023-11-22T07:45:52;99809.40;;;0.60
71081;BMP180;58740;50.672;18.690;2023-11-22T07:48:26;99802.00;;;0.60
71081;BMP180;58740;50.672;18.690;2023-11-22T07:51:00;99811.80;;;0.60
71081;BMP180;58740;50.672;18.690;2023-11-22T07:53:34;99815.40;;;0.60
71081;BMP180;58740;50.672;18.690;2023-11-22T07:56:09;99820.20;;;0.60
71081;BMP180;58740;50.672;18.690;2023-11-22T07:58:44;99823.60;;;0.60
71081;BMP180;58740;50.672;18.690;2023-11-22T08:01:17;99829.60;;;0.60
71081;BMP180;58740;50.672;18.690;2023-11-22T08:03:51;99838.40;;;0.60
71081;BMP180;58740;50.672;18.690;2023-11-22T08:06:24;99839.20;;;0.60
71081;BMP180;58740;50.672;18.690;2023-11-22T08:08:59;99834.80;;;0.60
71081;BMP180;58740;50.672;18.690;2023-11-22T08:11:34;99839.00;;;0.70
71081;BMP180;58740;50.672;18.690;2023-11-22T08:14:07;99841.60;;;0.70
71081;BMP180;58740;50.672;18.690;2023-11-22T08:16:41;99843.40;;;0.70
71081;BMP180;58740;50.672;18.690;2023-11-22T08:19:15;99843.40;;;0.80
71081;BMP180;58740;50.672;18.690;2023-11-22T08:21:49;99843.40;;;0.90
71081;BMP180;58740;50.672;18.690;2023-11-22T08:24:23;99853.00;;;0.90
71081;BMP180;58740;50.672;18.690;2023-11-22T08:26:57;99855.00;;;0.92
71081;BMP180;58740;50.672;18.690;2023-11-22T08:29:31;99856.40;;;0.90
71081;BMP180;58740;50.672;18.690;2023-11-22T08:32:06;99861.00;;;0.80
71081;BMP180;58740;50.672;18.690;2023-11-22T08:34:40;99854.60;;;0.80
71081;BMP180;58740;50.672;18.690;2023-11-22T08:37:14;99865.80;;;0.80
71081;BMP180;58740;50.672;18.690;2023-11-22T08:39:48;99876.00;;;0.80
71081;BMP180;58740;50.672;18.690;2023-11-22T08:42:22;99874.20;;;0.80
71081;BMP180;58740;50.672;18.690;2023-11-22T08:44:55;99861.60;;;0.78
71081;BMP180;58740;50.672;18.690;2023-11-22T08:47:29;99868.20;;;0.70
71081;BMP180;58740;50.672;18.690;2023-11-22T08:50:04;99870.60;;;0.70
71081;BMP180;58740;50.672;18.690;2023-11-22T08:52:37;99865.80;;;0.80
71081;BMP180;58740;50.672;18.690;2023-11-22T08:55:12;99873.60;;;0.80
71081;BMP180;58740;50.672;18.690;2023-11-22T08:57:47;99871.40;;;0.80
71081;BMP180;58740;50.672;18.690;2023-11-22T09:00:23;99866.60;;;0.74
71081;BMP180;58740;50.672;18.690;2023-11-22T09:03:00;99866.60;;;0.70
71081;BMP180;58740;50.672;18.690;2023-11-22T09:05:35;99868.80;;;0.70
71081;BMP180;58740;50.672;18.690;2023-11-22T09:08:09;99874.20;;;0.70
71081;BMP180;58740;50.672;18.690;2023-11-22T09:10:57;99873.40;;;0.80
71081;BMP180;58740;50.672;18.690;2023-11-22T09:13:30;99877.00;;;0.70
71081;BMP180;58740;50.672;18.690;2023-11-22T09:16:04;99895.60;;;0.60
71081;BMP180;58740;50.672;18.690;2023-11-22T09:18:39;99905.40;;;0.60
71081;BMP180;58740;50.672;18.690;2023-11-22T09:21:13;99901.00;;;0.60
71081;BMP180;58740;50.672;18.690;2023-11-22T09:23:49;99899.60;;;0.54
71081;BMP180;58740;50.672;18.690;2023-11-22T09:26:22;99912.40;;;0.60
71081;BMP180;58740;50.672;18.690;2023-11-22T09:28:56;99927.40;;;0.58
71081;BMP180;58740;50.672;18.690;2023-11-22T09:31:30;99926.40;;;0.50
71081;BMP180;58740;50.672;18.690;2023-11-22T09:34:04;99923.00;;;0.46
71081;BMP180;58740;50.672;18.690;2023-11-22T09:36:38;99921.40;;;0.40
71081;BMP180;58740;50.672;18.690;2023-11-22T09:39:11;99929.40;;;0.40
71081;BMP180;58740;50.672;18.690;2023-11-22T09:41:45;99927.80;;;0.40
71081;BMP180;58740;50.672;18.690;2023-11-22T09:44:19;99912.00;;;0.30
71081;BMP180;58740;50.672;18.690;2023-11-22T09:46:56;99909.60;;;0.30
71081;BMP180;58740;50.672;18.690;2023-11-22T09:49:33;99914.40;;;0.30
71081;BMP180;58740;50.672;18.690;2023-11-22T09:52:10;99910.00;;;0.40
71081;BMP180;58740;50.672;18.690;2023-11-22T09:54:46;99901.40;;;0.50
71081;BMP180;58740;50.672;18.690;2023-11-22T09:57:22;99887.40;;;0.54
71081;BMP180;58740;50.672;18.690;2023-11-22T09:59:59;99884.00;;;0.60
71081;BMP180;58740;50.672;18.690;2023-11-22T10:02:33;99880.60;;;0.70
71081;BMP180;58740;50.672;18.690;2023-11-22T10:05:08;99884.20;;;0.70
71081;BMP180;58740;50.672;18.690;2023-11-22T10:07:43;99876.40;;;0.80
71081;BMP180;58740;50.672;18.690;2023-11-22T10:10:22;99867.80;;;0.80
71081;BMP180;58740;50.672;18.690;2023-11-22T10:13:00;99867.80;;;0.76
71081;BMP180;58740;50.672;18.690;2023-11-22T10:15:33;99863.40;;;0.76
71081;BMP180;58740;50.672;18.690;2023-11-22T10:18:07;99874.60;;;0.78
71081;BMP180;58740;50.672;18.690;2023-11-22T10:20:42;99885.40;;;0.74
71081;BMP180;58740;50.672;18.690;2023-11-22T10:23:20;99893.20;;;0.78
71081;BMP180;58740;50.672;18.690;2023-11-22T10:25:57;99895.80;;;0.70
71081;BMP180;58740;50.672;18.690;2023-11-22T10:28:30;99896.80;;;0.74
71081;BMP180;58740;50.672;18.690;2023-11-22T10:31:09;99894.00;;;0.70
71081;BMP180;58740;50.672;18.690;2023-11-22T10:33:44;99893.60;;;0.70
71081;BMP180;58740;50.672;18.690;2023-11-22T10:36:18;99902.40;;;0.70
71081;BMP180;58740;50.672;18.690;2023-11-22T10:38:52;99913.20;;;0.70
71081;BMP180;58740;50.672;18.690;2023-11-22T10:41:27;99913.40;;;0.70
71081;BMP180;58740;50.672;18.690;2023-11-22T10:44:01;99921.60;;;0.70
71081;BMP180;58740;50.672;18.690;2023-11-22T10:46:36;99928.20;;;0.60
71081;BMP180;58740;50.672;18.690;2023-11-22T10:49:11;99929.60;;;0.60
71081;BMP180;58740;50.672;18.690;2023-11-22T10:51:51;99927.00;;;0.60
71081;BMP180;58740;50.672;18.690;2023-11-22T10:54:26;99918.20;;;0.70
71081;BMP180;58740;50.672;18.690;2023-11-22T10:57:02;99922.60;;;0.70
71081;BMP180;58740;50.672;18.690;2023-11-22T10:59:37;99932.60;;;0.70
71081;BMP180;58740;50.672;18.690;2023-11-22T11:02:21;99932.40;;;0.70
71081;BMP180;58740;50.672;18.690;2023-11-22T11:05:03;99930.80;;;0.68
71081;BMP180;58740;50.672;18.690;2023-11-22T11:07:54;99942.00;;;0.64
71081;BMP180;58740;50.672;18.690;2023-11-22T11:10:32;99944.40;;;0.62
71081;BMP180;58740;50.672;18.690;2023-11-22T11:13:06;99941.80;;;0.60
71081;BMP180;58740;50.672;18.690;2023-11-22T11:15:42;99947.60;;;0.60
71081;BMP180;58740;50.672;18.690;2023-11-22T11:18:18;99949.60;;;0.60
71081;BMP180;58740;50.672;18.690;2023-11-22T11:20:54;99946.20;;;0.60
71081;BMP180;58740;50.672;18.690;2023-11-22T11:23:29;99940.60;;;0.70
71081;BMP180;58740;50.672;18.690;2023-11-22T11:26:18;99941.60;;;0.70
71081;BMP180;58740;50.672;18.690;2023-11-22T11:28:54;99944.80;;;0.70
71081;BMP180;58740;50.672;18.690;2023-11-22T11:31:34;99949.00;;;0.68
71081;BMP180;58740;50.672;18.690;2023-11-22T11:34:13;99950.80;;;0.60
71081;BMP180;58740;50.672;18.690;2023-11-22T11:36:55;99948.00;;;0.60
71081;BMP180;58740;50.672;18.690;2023-11-22T11:39:30;99927.00;;;0.70
71081;BMP180;58740;50.672;18.690;2023-11-22T11:42:14;99924.80;;;0.70
71081;BMP180;58740;50.672;18.690;2023-11-22T11:45:12;99936.80;;;0.70
71081;BMP180;58740;50.672;18.690;2023-11-22T11:47:45;99944.60;;;0.80
71081;BMP180;58740;50.672;18.690;2023-11-22T11:50:21;99948.40;;;0.90
71081;BMP180;58740;50.672;18.690;2023-11-22T11:52:56;99939.60;;;0.90
71081;BMP180;58740;50.672;18.690;2023-11-22T11:55:30;99937.60;;;0.90
71081;BMP180;58740;50.672;18.690;2023-11-22T11:58:08;99949.40;;;0.96
71081;BMP180;58740;50.672;18.690;2023-11-22T12:00:42;99945.00;;;1.00
71081;BMP180;58740;50.672;18.690;2023-11-22T12:03:17;99939.20;;;1.00
71081;BMP180;58740;50.672;18.690;2023-11-22T12:05:54;99953.20;;;1.10
71081;BMP180;58740;50.672;18.690;2023-11-22T12:08:28;99951.60;;;1.00
71081;BMP180;58740;50.672;18.690;2023-11-22T12:11:03;99955.40;;;1.00
71081;BMP180;58740;50.672;18.690;2023-11-22T12:13:39;99965.40;;;0.90
71081;BMP180;58740;50.672;18.690;2023-11-22T12:16:18;99966.00;;;0.80
71081;BMP180;58740;50.672;18.690;2023-11-22T12:18:52;99966.60;;;0.70
71081;BMP180;58740;50.672;18.690;2023-11-22T12:21:26;99971.60;;;0.60
71081;BMP180;58740;50.672;18.690;2023-11-22T12:24:00;99970.60;;;0.60
71081;BMP180;58740;50.672;18.690;2023-11-22T12:26:44;99972.80;;;0.50
71081;BMP180;58740;50.672;18.690;2023-11-22T12:29:18;99963.60;;;0.50
71081;BMP180;58740;50.672;18.690;2023-11-22T12:31:53;99958.80;;;0.50
71081;BMP180;58740;50.672;18.690;2023-11-22T12:34:29;99955.40;;;0.50
71081;BMP180;58740;50.672;18.690;2023-11-22T12:37:04;99949.20;;;0.50
71081;BMP180;58740;50.672;18.690;2023-11-22T12:39:41;99939.80;;;0.50
71081;BMP180;58740;50.672;18.690;2023-11-22T12:42:15;99939.20;;;0.50
71081;BMP180;58740;50.672;18.690;2023-11-22T12:44:52;99937.80;;;0.50
71081;BMP180;58740;50.672;18.690;2023-11-22T12:47:36;99929.40;;;0.52
71081;BMP180;58740;50.672;18.690;2023-11-22T12:50:30;99932.40;;;0.56
71081;BMP180;58740;50.672;18.690;2023-11-22T12:53:11;99944.80;;;0.50
71081;BMP180;58740;50.672;18.690;2023-11-22T12:55:49;99949.40;;;0.50
71081;BMP180;58740;50.672;18.690;2023-11-22T12:58:25;99945.20;;;0.50
71081;BMP180;58740;50.672;18.690;2023-11-22T13:01:00;99937.00;;;0.54
71081;BMP180;58740;50.672;18.690;2023-11-22T13:03:35;99946.60;;;0.50
71081;BMP180;58740;50.672;18.690;2023-11-22T13:06:09;99954.00;;;0.50
71081;BMP180;58740;50.672;18.690;2023-11-22T13:08:43;99962.60;;;0.50
71081;BMP180;58740;50.672;18.690;2023-11-22T13:11:17;99958.80;;;0.50
71081;BMP180;58740;50.672;18.690;2023-11-22T13:13:51;99961.00;;;0.50
71081;BMP180;58740;50.672;18.690;2023-11-22T13:16:25;99969.00;;;0.50
71081;BMP180;58740;50.672;18.690;2023-11-22T13:18:59;99968.00;;;0.50
71081;BMP180;58740;50.672;18.690;2023-11-22T13:21:32;99976.20;;;0.40
71081;BMP180;58740;50.672;18.690;2023-11-22T13:24:07;99978.80;;;0.48
71081;BMP180;58740;50.672;18.690;2023-11-22T13:26:41;99974.80;;;0.42
71081;BMP180;58740;50.672;18.690;2023-11-22T13:29:15;99972.20;;;0.40
71081;BMP180;58740;50.672;18.690;2023-11-22T13:31:50;99978.40;;;0.40
71081;BMP180;58740;50.672;18.690;2023-11-22T13:34:24;99973.60;;;0.30
71081;BMP180;58740;50.672;18.690;2023-11-22T13:36:58;99960.60;;;0.30
71081;BMP180;58740;50.672;18.690;2023-11-22T13:39:32;99953.00;;;0.30
71081;BMP180;58740;50.672;18.690;2023-11-22T13:42:06;99964.40;;;0.30
71081;BMP180;58740;50.672;18.690;2023-11-22T13:44:39;99972.40;;;0.30
71081;BMP180;58740;50.672;18.690;2023-11-22T13:47:14;99987.00;;;0.40
71081;BMP180;58740;50.672;18.690;2023-11-22T13:49:47;99990.60;;;0.40
71081;BMP180;58740;50.672;18.690;2023-11-22T13:52:22;99997.80;;;0.44
71081;BMP180;58740;50.672;18.690;2023-11-22T13:54:56;100010.20;;;0.50
71081;BMP180;58740;50.672;18.690;2023-11-22T13:57:32;100016.80;;;0.58
71081;BMP180;58740;50.672;18.690;2023-11-22T14:00:08;100017.60;;;0.52
71081;BMP180;58740;50.672;18.690;2023-11-22T14:02:44;100015.00;;;0.60
71081;BMP180;58740;50.672;18.690;2023-11-22T14:05:18;100017.20;;;0.60
71081;BMP180;58740;50.672;18.690;2023-11-22T14:07:54;100021.60;;;0.60
71081;BMP180;58740;50.672;18.690;2023-11-22T14:10:28;100015.80;;;0.66
71081;BMP180;58740;50.672;18.690;2023-11-22T14:13:02;100018.40;;;0.64
71081;BMP180;58740;50.672;18.690;2023-11-22T14:15:37;100025.80;;;0.60
71081;BMP180;58740;50.672;18.690;2023-11-22T14:18:11;100021.40;;;0.60
71081;BMP180;58740;50.672;18.690;2023-11-22T14:20:44;100021.60;;;0.60
71081;BMP180;58740;50.672;18.690;2023-11-22T14:23:18;100010.60;;;0.60
71081;BMP180;58740;50.672;18.690;2023-11-22T14:25:51;100001.80;;;0.60
71081;BMP180;58740;50.672;18.690;2023-11-22T14:28:26;100002.40;;;0.60
71081;BMP180;58740;50.672;18.690;2023-11-22T14:31:00;100005.20;;;0.60
71081;BMP180;58740;50.672;18.690;2023-11-22T14:33:36;99986.60;;;0.60
71081;BMP180;58740;50.672;18.690;2023-11-22T14:36:10;99980.60;;;0.50
71081;BMP180;58740;50.672;18.690;2023-11-22T14:38:45;99974.80;;;0.50
71081;BMP180;58740;50.672;18.690;2023-11-22T14:41:26;99980.40;;;0.52
71081;BMP180;58740;50.672;18.690;2023-11-22T14:44:00;99984.80;;;0.58
71081;BMP180;58740;50.672;18.690;2023-11-22T14:46:34;99982.00;;;0.60
71081;BMP180;58740;50.672;18.690;2023-11-22T14:49:09;99974.20;;;0.70
71081;BMP180;58740;50.672;18.690;2023-11-22T14:51:46;99974.40;;;0.70